sensor_id;sensor_type;location;lat;lon;timestamp;P1;durP1;ratioP1;P2;durP2;ratioP2
6640;SDS011;3356;49.360;8.266;2022-08-20T00:00:16;1.77;;;1.67;;
6640;SDS011;3356;49.360;8.266;2022-08-20T00:02:19;3.10;;;2.80;;
6640;SDS011;3356;49.360;8.266;2022-08-20T00:04:20;2.23;;;2.10;;
6640;SDS011;3356;49.360;8.266;2022-08-20T00:06:22;1.57;;;1.47;;
6640;SDS011;3356;49.360;8.266;2022-08-20T00:08:23;1.13;;;0.97;;
6640;SDS011;3356;49.360;8.266;2022-08-20T00:10:26;1.30;;;1.20;;
6640;SDS011;3356;49.360;8.266;2022-08-20T00:12:28;1.53;;;1.10;;
6640;SDS011;3356;49.360;8.266;2022-08-20T00:14:29;1.23;;;1.17;;
6640;SDS011;3356;49.360;8.266;2022-08-20T00:16:32;0.93;;;0.93;;
6640;SDS011;3356;49.360;8.266;2022-08-20T00:18:36;1.40;;;1.40;;
6640;SDS011;3356;49.360;8.266;2022-08-20T00:20:40;1.30;;;1.30;;
6640;SDS011;3356;49.360;8.266;2022-08-20T00:22:43;1.97;;;1.27;;
6640;SDS011;3356;49.360;8.266;2022-08-20T00:24:44;2.00;;;1.70;;
6640;SDS011;3356;49.360;8.266;2022-08-20T00:26:45;2.73;;;1.30;;
6640;SDS011;3356;49.360;8.266;2022-08-20T00:28:47;3.13;;;1.50;;
6640;SDS011;3356;49.360;8.266;2022-08-20T00:30:48;3.07;;;1.40;;
6640;SDS011;3356;49.360;8.266;2022-08-20T00:32:57;1.10;;;1.10;;
6640;SDS011;3356;49.360;8.266;2022-08-20T00:35:00;1.20;;;1.20;;
6640;SDS011;3356;49.360;8.266;2022-08-20T00:37:02;2.23;;;1.40;;
6640;SDS011;3356;49.360;8.266;2022-08-20T00:39:03;1.10;;;1.10;;
6640;SDS011;3356;49.360;8.266;2022-08-20T00:41:04;1.40;;;1.30;;
6640;SDS011;3356;49.360;8.266;2022-08-20T00:43:23;1.13;;;1.13;;
6640;SDS011;3356;49.360;8.266;2022-08-20T00:45:32;1.17;;;1.10;;
6640;SDS011;3356;49.360;8.266;2022-08-20T00:47:34;1.53;;;1.20;;
6640;SDS011;3356;49.360;8.266;2022-08-20T00:49:37;1.10;;;1.10;;
6640;SDS011;3356;49.360;8.266;2022-08-20T00:51:40;1.43;;;1.37;;
6640;SDS011;3356;49.360;8.266;2022-08-20T00:53:45;1.50;;;1.40;;
6640;SDS011;3356;49.360;8.266;2022-08-20T00:55:47;1.33;;;1.27;;
6640;SDS011;3356;49.360;8.266;2022-08-20T00:57:50;1.60;;;1.50;;
6640;SDS011;3356;49.360;8.266;2022-08-20T00:59:54;1.77;;;1.40;;
6640;SDS011;3356;49.360;8.266;2022-08-20T01:01:59;1.10;;;1.10;;
6640;SDS011;3356;49.360;8.266;2022-08-20T01:04:00;1.20;;;1.20;;
6640;SDS011;3356;49.360;8.266;2022-08-20T01:06:02;1.63;;;1.53;;
6640;SDS011;3356;49.360;8.266;2022-08-20T01:08:03;3.43;;;1.60;;
6640;SDS011;3356;49.360;8.266;2022-08-20T01:10:09;1.53;;;1.43;;
6640;SDS011;3356;49.360;8.266;2022-08-20T01:12:16;1.77;;;1.67;;
6640;SDS011;3356;49.360;8.266;2022-08-20T01:14:17;1.80;;;1.60;;
6640;SDS011;3356;49.360;8.266;2022-08-20T01:16:35;3.50;;;2.20;;
6640;SDS011;3356;49.360;8.266;2022-08-20T01:18:38;2.03;;;1.70;;
6640;SDS011;3356;49.360;8.266;2022-08-20T01:20:41;1.70;;;1.60;;
6640;SDS011;3356;49.360;8.266;2022-08-20T01:22:52;1.70;;;1.40;;
6640;SDS011;3356;49.360;8.266;2022-08-20T01:27:43;1.40;;;1.30;;
6640;SDS011;3356;49.360;8.266;2022-08-20T01:29:45;1.50;;;1.40;;
6640;SDS011;3356;49.360;8.266;2022-08-20T01:31:46;1.73;;;1.47;;
6640;SDS011;3356;49.360;8.266;2022-08-20T01:33:48;1.60;;;1.47;;
6640;SDS011;3356;49.360;8.266;2022-08-20T01:35:51;1.37;;;1.30;;
6640;SDS011;3356;49.360;8.266;2022-08-20T01:37:53;1.33;;;1.33;;
6640;SDS011;3356;49.360;8.266;2022-08-20T01:39:55;1.93;;;1.60;;
6640;SDS011;3356;49.360;8.266;2022-08-20T01:44:09;4.47;;;1.20;;
6640;SDS011;3356;49.360;8.266;2022-08-20T01:46:12;1.30;;;1.30;;
6640;SDS011;3356;49.360;8.266;2022-08-20T01:48:14;4.70;;;1.43;;
6640;SDS011;3356;49.360;8.266;2022-08-20T01:50:20;1.53;;;1.43;;
6640;SDS011;3356;49.360;8.266;2022-08-20T01:54:30;1.80;;;1.70;;
6640;SDS011;3356;49.360;8.266;2022-08-20T01:56:33;1.47;;;1.37;;
6640;SDS011;3356;49.360;8.266;2022-08-20T01:58:37;1.60;;;1.43;;
6640;SDS011;3356;49.360;8.266;2022-08-20T02:00:40;1.53;;;1.43;;
6640;SDS011;3356;49.360;8.266;2022-08-20T02:02:41;2.40;;;1.30;;
6640;SDS011;3356;49.360;8.266;2022-08-20T02:04:43;1.33;;;1.23;;
6640;SDS011;3356;49.360;8.266;2022-08-20T02:06:48;1.40;;;1.30;;
6640;SDS011;3356;49.360;8.266;2022-08-20T02:08:54;1.37;;;1.30;;
6640;SDS011;3356;49.360;8.266;2022-08-20T02:10:56;3.50;;;1.67;;
6640;SDS011;3356;49.360;8.266;2022-08-20T02:12:58;1.57;;;1.47;;
6640;SDS011;3356;49.360;8.266;2022-08-20T02:15:00;3.53;;;1.63;;
6640;SDS011;3356;49.360;8.266;2022-08-20T02:17:01;3.37;;;1.77;;
6640;SDS011;3356;49.360;8.266;2022-08-20T02:19:06;1.50;;;1.40;;
6640;SDS011;3356;49.360;8.266;2022-08-20T02:21:12;1.47;;;1.37;;
6640;SDS011;3356;49.360;8.266;2022-08-20T02:23:14;1.53;;;1.33;;
6640;SDS011;3356;49.360;8.266;2022-08-20T02:25:16;3.63;;;1.30;;
6640;SDS011;3356;49.360;8.266;2022-08-20T02:27:20;1.57;;;1.33;;
6640;SDS011;3356;49.360;8.266;2022-08-20T02:29:23;1.77;;;1.67;;
6640;SDS011;3356;49.360;8.266;2022-08-20T02:31:25;1.57;;;1.47;;
6640;SDS011;3356;49.360;8.266;2022-08-20T02:33:26;1.77;;;1.67;;
6640;SDS011;3356;49.360;8.266;2022-08-20T02:35:28;1.90;;;1.73;;
6640;SDS011;3356;49.360;8.266;2022-08-20T02:37:29;2.73;;;1.63;;
6640;SDS011;3356;49.360;8.266;2022-08-20T02:39:30;1.70;;;1.60;;
6640;SDS011;3356;49.360;8.266;2022-08-20T02:41:33;1.53;;;1.43;;
6640;SDS011;3356;49.360;8.266;2022-08-20T02:43:34;1.40;;;1.30;;
6640;SDS011;3356;49.360;8.266;2022-08-20T02:45:36;1.90;;;1.53;;
6640;SDS011;3356;49.360;8.266;2022-08-20T02:47:43;1.60;;;1.50;;
6640;SDS011;3356;49.360;8.266;2022-08-20T02:49:45;1.70;;;1.50;;
6640;SDS011;3356;49.360;8.266;2022-08-20T02:51:46;1.60;;;1.50;;
6640;SDS011;3356;49.360;8.266;2022-08-20T02:53:47;1.70;;;1.60;;
6640;SDS011;3356;49.360;8.266;2022-08-20T02:55:49;2.40;;;1.60;;
6640;SDS011;3356;49.360;8.266;2022-08-20T02:57:51;2.50;;;1.33;;
6640;SDS011;3356;49.360;8.266;2022-08-20T02:59:54;2.63;;;1.70;;
6640;SDS011;3356;49.360;8.266;2022-08-20T03:01:56;1.37;;;1.37;;
6640;SDS011;3356;49.360;8.266;2022-08-20T03:03:58;3.60;;;1.60;;
6640;SDS011;3356;49.360;8.266;2022-08-20T03:05:59;1.40;;;1.40;;
6640;SDS011;3356;49.360;8.266;2022-08-20T03:08:01;2.90;;;1.80;;
6640;SDS011;3356;49.360;8.266;2022-08-20T03:10:02;1.77;;;1.67;;
6640;SDS011;3356;49.360;8.266;2022-08-20T03:12:04;1.50;;;1.50;;
6640;SDS011;3356;49.360;8.266;2022-08-20T03:14:06;1.50;;;1.40;;
6640;SDS011;3356;49.360;8.266;2022-08-20T03:16:08;1.60;;;1.50;;
6640;SDS011;3356;49.360;8.266;2022-08-20T03:18:09;1.50;;;1.40;;
6640;SDS011;3356;49.360;8.266;2022-08-20T03:20:11;1.50;;;1.50;;
6640;SDS011;3356;49.360;8.266;2022-08-20T03:22:13;2.83;;;1.40;;
6640;SDS011;3356;49.360;8.266;2022-08-20T03:24:14;1.67;;;1.57;;
6640;SDS011;3356;49.360;8.266;2022-08-20T03:26:15;1.90;;;1.60;;
6640;SDS011;3356;49.360;8.266;2022-08-20T03:28:17;3.23;;;1.80;;
6640;SDS011;3356;49.360;8.266;2022-08-20T03:30:19;1.73;;;1.63;;
6640;SDS011;3356;49.360;8.266;2022-08-20T03:32:21;6.27;;;2.30;;
6640;SDS011;3356;49.360;8.266;2022-08-20T03:34:23;5.83;;;2.40;;
6640;SDS011;3356;49.360;8.266;2022-08-20T03:36:25;2.50;;;1.97;;
6640;SDS011;3356;49.360;8.266;2022-08-20T03:38:27;2.10;;;2.00;;
6640;SDS011;3356;49.360;8.266;2022-08-20T03:40:30;1.87;;;1.77;;
6640;SDS011;3356;49.360;8.266;2022-08-20T03:42:33;1.80;;;1.70;;
6640;SDS011;3356;49.360;8.266;2022-08-20T03:44:35;2.43;;;1.67;;
6640;SDS011;3356;49.360;8.266;2022-08-20T03:46:36;2.87;;;2.20;;
6640;SDS011;3356;49.360;8.266;2022-08-20T03:48:38;2.13;;;2.03;;
6640;SDS011;3356;49.360;8.266;2022-08-20T03:50:40;2.33;;;2.20;;
6640;SDS011;3356;49.360;8.266;2022-08-20T03:52:42;3.07;;;1.80;;
6640;SDS011;3356;49.360;8.266;2022-08-20T03:54:43;2.50;;;2.27;;
6640;SDS011;3356;49.360;8.266;2022-08-20T03:56:45;3.53;;;1.90;;
6640;SDS011;3356;49.360;8.266;2022-08-20T03:58:46;2.17;;;2.07;;
6640;SDS011;3356;49.360;8.266;2022-08-20T04:00:48;1.93;;;1.83;;
6640;SDS011;3356;49.360;8.266;2022-08-20T04:02:50;2.23;;;2.10;;
6640;SDS011;3356;49.360;8.266;2022-08-20T04:04:51;3.13;;;2.13;;
6640;SDS011;3356;49.360;8.266;2022-08-20T04:06:54;2.03;;;1.93;;
6640;SDS011;3356;49.360;8.266;2022-08-20T04:08:55;4.33;;;2.30;;
6640;SDS011;3356;49.360;8.266;2022-08-20T04:10:57;2.40;;;2.13;;
6640;SDS011;3356;49.360;8.266;2022-08-20T04:12:59;2.50;;;2.10;;
6640;SDS011;3356;49.360;8.266;2022-08-20T04:15:00;2.27;;;2.13;;
6640;SDS011;3356;49.360;8.266;2022-08-20T04:17:08;2.20;;;2.00;;
6640;SDS011;3356;49.360;8.266;2022-08-20T04:19:11;2.03;;;1.93;;
6640;SDS011;3356;49.360;8.266;2022-08-20T04:21:12;4.07;;;2.40;;
6640;SDS011;3356;49.360;8.266;2022-08-20T04:23:13;2.57;;;2.40;;
6640;SDS011;3356;49.360;8.266;2022-08-20T04:25:14;3.50;;;2.83;;
6640;SDS011;3356;49.360;8.266;2022-08-20T04:27:16;2.20;;;2.10;;
6640;SDS011;3356;49.360;8.266;2022-08-20T04:29:17;2.60;;;2.40;;
6640;SDS011;3356;49.360;8.266;2022-08-20T04:31:18;3.63;;;2.50;;
6640;SDS011;3356;49.360;8.266;2022-08-20T04:33:20;2.77;;;2.57;;
6640;SDS011;3356;49.360;8.266;2022-08-20T04:35:23;3.17;;;2.50;;
6640;SDS011;3356;49.360;8.266;2022-08-20T04:37:26;3.10;;;2.80;;
6640;SDS011;3356;49.360;8.266;2022-08-20T04:39:27;3.07;;;2.73;;
6640;SDS011;3356;49.360;8.266;2022-08-20T04:41:28;3.00;;;2.60;;
6640;SDS011;3356;49.360;8.266;2022-08-20T04:43:30;2.53;;;2.33;;
6640;SDS011;3356;49.360;8.266;2022-08-20T04:45:33;1.93;;;1.83;;
6640;SDS011;3356;49.360;8.266;2022-08-20T04:47:34;3.33;;;2.60;;
6640;SDS011;3356;49.360;8.266;2022-08-20T04:49:36;2.40;;;2.20;;
6640;SDS011;3356;49.360;8.266;2022-08-20T04:51:38;3.67;;;2.43;;
6640;SDS011;3356;49.360;8.266;2022-08-20T04:53:39;2.40;;;2.20;;
6640;SDS011;3356;49.360;8.266;2022-08-20T04:55:41;2.57;;;2.37;;
6640;SDS011;3356;49.360;8.266;2022-08-20T04:57:43;2.83;;;2.60;;
6640;SDS011;3356;49.360;8.266;2022-08-20T04:59:45;2.77;;;2.57;;
6640;SDS011;3356;49.360;8.266;2022-08-20T05:01:46;3.43;;;2.30;;
6640;SDS011;3356;49.360;8.266;2022-08-20T05:03:48;3.13;;;2.60;;
6640;SDS011;3356;49.360;8.266;2022-08-20T05:05:49;3.50;;;2.53;;
6640;SDS011;3356;49.360;8.266;2022-08-20T05:07:51;2.67;;;2.47;;
6640;SDS011;3356;49.360;8.266;2022-08-20T05:09:52;3.10;;;2.50;;
6640;SDS011;3356;49.360;8.266;2022-08-20T05:11:53;2.90;;;2.20;;
6640;SDS011;3356;49.360;8.266;2022-08-20T05:13:54;2.27;;;2.03;;
6640;SDS011;3356;49.360;8.266;2022-08-20T05:15:56;2.60;;;2.40;;
6640;SDS011;3356;49.360;8.266;2022-08-20T05:18:01;4.97;;;1.97;;
6640;SDS011;3356;49.360;8.266;2022-08-20T05:20:04;3.00;;;2.30;;
6640;SDS011;3356;49.360;8.266;2022-08-20T05:22:07;4.40;;;2.00;;
6640;SDS011;3356;49.360;8.266;2022-08-20T05:24:08;2.23;;;2.13;;
6640;SDS011;3356;49.360;8.266;2022-08-20T05:26:11;2.57;;;2.37;;
6640;SDS011;3356;49.360;8.266;2022-08-20T05:28:16;3.80;;;2.20;;
6640;SDS011;3356;49.360;8.266;2022-08-20T05:30:20;3.73;;;2.33;;
6640;SDS011;3356;49.360;8.266;2022-08-20T05:32:21;2.40;;;2.20;;
6640;SDS011;3356;49.360;8.266;2022-08-20T05:34:22;2.70;;;2.50;;
6640;SDS011;3356;49.360;8.266;2022-08-20T05:36:24;2.53;;;2.20;;
6640;SDS011;3356;49.360;8.266;2022-08-20T05:38:27;2.47;;;2.23;;
6640;SDS011;3356;49.360;8.266;2022-08-20T05:40:29;3.87;;;2.07;;
6640;SDS011;3356;49.360;8.266;2022-08-20T05:42:30;4.33;;;2.30;;
6640;SDS011;3356;49.360;8.266;2022-08-20T05:44:31;2.97;;;2.67;;
6640;SDS011;3356;49.360;8.266;2022-08-20T05:46:32;2.10;;;1.97;;
6640;SDS011;3356;49.360;8.266;2022-08-20T05:48:33;4.93;;;2.90;;
6640;SDS011;3356;49.360;8.266;2022-08-20T05:50:35;2.20;;;2.10;;
6640;SDS011;3356;49.360;8.266;2022-08-20T05:52:37;4.07;;;2.50;;
6640;SDS011;3356;49.360;8.266;2022-08-20T05:54:38;2.70;;;2.50;;
6640;SDS011;3356;49.360;8.266;2022-08-20T05:56:40;2.10;;;2.00;;
6640;SDS011;3356;49.360;8.266;2022-08-20T05:58:41;3.63;;;2.23;;
6640;SDS011;3356;49.360;8.266;2022-08-20T06:00:42;3.83;;;2.30;;
6640;SDS011;3356;49.360;8.266;2022-08-20T06:02:43;3.37;;;2.07;;
6640;SDS011;3356;49.360;8.266;2022-08-20T06:05:03;1.93;;;1.83;;
6640;SDS011;3356;49.360;8.266;2022-08-20T06:07:05;3.43;;;2.23;;
6640;SDS011;3356;49.360;8.266;2022-08-20T06:09:06;11.10;;;2.90;;
6640;SDS011;3356;49.360;8.266;2022-08-20T06:11:08;13.50;;;3.17;;
6640;SDS011;3356;49.360;8.266;2022-08-20T06:13:09;5.37;;;2.50;;
6640;SDS011;3356;49.360;8.266;2022-08-20T06:15:11;2.50;;;1.90;;
6640;SDS011;3356;49.360;8.266;2022-08-20T06:17:13;16.97;;;2.80;;
6640;SDS011;3356;49.360;8.266;2022-08-20T06:19:17;2.27;;;2.03;;
6640;SDS011;3356;49.360;8.266;2022-08-20T06:21:18;23.73;;;2.93;;
6640;SDS011;3356;49.360;8.266;2022-08-20T06:23:19;3.33;;;1.80;;
6640;SDS011;3356;49.360;8.266;2022-08-20T06:25:20;6.33;;;2.17;;
6640;SDS011;3356;49.360;8.266;2022-08-20T06:27:21;12.53;;;2.27;;
6640;SDS011;3356;49.360;8.266;2022-08-20T06:29:23;2.20;;;2.00;;
6640;SDS011;3356;49.360;8.266;2022-08-20T06:31:24;3.30;;;1.77;;
6640;SDS011;3356;49.360;8.266;2022-08-20T06:33:26;3.97;;;1.80;;
6640;SDS011;3356;49.360;8.266;2022-08-20T06:35:27;2.20;;;1.70;;
6640;SDS011;3356;49.360;8.266;2022-08-20T06:37:29;5.00;;;2.17;;
6640;SDS011;3356;49.360;8.266;2022-08-20T06:39:31;1.67;;;1.57;;
6640;SDS011;3356;49.360;8.266;2022-08-20T06:41:32;1.80;;;1.70;;
6640;SDS011;3356;49.360;8.266;2022-08-20T06:43:35;2.50;;;1.80;;
6640;SDS011;3356;49.360;8.266;2022-08-20T06:45:36;2.00;;;1.70;;
6640;SDS011;3356;49.360;8.266;2022-08-20T06:47:39;2.67;;;2.27;;
6640;SDS011;3356;49.360;8.266;2022-08-20T06:49:41;2.10;;;1.60;;
6640;SDS011;3356;49.360;8.266;2022-08-20T06:51:42;2.97;;;1.90;;
6640;SDS011;3356;49.360;8.266;2022-08-20T06:53:45;1.47;;;1.37;;
6640;SDS011;3356;49.360;8.266;2022-08-20T06:55:48;2.70;;;1.70;;
6640;SDS011;3356;49.360;8.266;2022-08-20T06:57:55;2.00;;;1.90;;
6640;SDS011;3356;49.360;8.266;2022-08-20T07:00:01;2.57;;;1.70;;
6640;SDS011;3356;49.360;8.266;2022-08-20T07:02:10;1.90;;;1.73;;
6640;SDS011;3356;49.360;8.266;2022-08-20T07:04:11;2.57;;;1.57;;
6640;SDS011;3356;49.360;8.266;2022-08-20T07:06:12;1.83;;;1.70;;
6640;SDS011;3356;49.360;8.266;2022-08-20T07:08:15;2.23;;;1.60;;
6640;SDS011;3356;49.360;8.266;2022-08-20T07:10:22;2.10;;;1.90;;
6640;SDS011;3356;49.360;8.266;2022-08-20T07:12:24;2.03;;;1.70;;
6640;SDS011;3356;49.360;8.266;2022-08-20T07:14:26;2.87;;;1.63;;
6640;SDS011;3356;49.360;8.266;2022-08-20T07:16:27;1.80;;;1.67;;
6640;SDS011;3356;49.360;8.266;2022-08-20T07:18:28;2.60;;;1.60;;
6640;SDS011;3356;49.360;8.266;2022-08-20T07:20:31;2.50;;;1.73;;
6640;SDS011;3356;49.360;8.266;2022-08-20T07:22:35;3.13;;;1.77;;
6640;SDS011;3356;49.360;8.266;2022-08-20T07:24:36;1.97;;;1.80;;
6640;SDS011;3356;49.360;8.266;2022-08-20T07:26:37;1.20;;;1.10;;
6640;SDS011;3356;49.360;8.266;2022-08-20T07:28:39;2.73;;;1.20;;
6640;SDS011;3356;49.360;8.266;2022-08-20T07:30:40;1.60;;;1.50;;
6640;SDS011;3356;49.360;8.266;2022-08-20T07:33:01;2.67;;;1.63;;
6640;SDS011;3356;49.360;8.266;2022-08-20T07:35:07;1.90;;;1.70;;
6640;SDS011;3356;49.360;8.266;2022-08-20T07:37:10;1.50;;;1.40;;
6640;SDS011;3356;49.360;8.266;2022-08-20T07:39:11;1.53;;;1.43;;
6640;SDS011;3356;49.360;8.266;2022-08-20T07:41:12;2.63;;;1.87;;
6640;SDS011;3356;49.360;8.266;2022-08-20T07:43:14;1.73;;;1.60;;
6640;SDS011;3356;49.360;8.266;2022-08-20T07:45:16;1.73;;;1.40;;
6640;SDS011;3356;49.360;8.266;2022-08-20T07:47:18;1.40;;;1.30;;
6640;SDS011;3356;49.360;8.266;2022-08-20T07:49:19;14.43;;;2.10;;
6640;SDS011;3356;49.360;8.266;2022-08-20T07:51:21;2.57;;;1.20;;
6640;SDS011;3356;49.360;8.266;2022-08-20T07:53:22;1.50;;;1.40;;
6640;SDS011;3356;49.360;8.266;2022-08-20T07:55:23;3.60;;;1.43;;
6640;SDS011;3356;49.360;8.266;2022-08-20T07:57:24;4.40;;;1.77;;
6640;SDS011;3356;49.360;8.266;2022-08-20T07:59:25;6.33;;;1.80;;
6640;SDS011;3356;49.360;8.266;2022-08-20T08:01:29;3.50;;;1.20;;
6640;SDS011;3356;49.360;8.266;2022-08-20T08:03:31;1.10;;;1.10;;
6640;SDS011;3356;49.360;8.266;2022-08-20T08:05:34;1.37;;;1.27;;
6640;SDS011;3356;49.360;8.266;2022-08-20T08:07:37;14.80;;;1.60;;
6640;SDS011;3356;49.360;8.266;2022-08-20T08:09:39;1.13;;;1.03;;
6640;SDS011;3356;49.360;8.266;2022-08-20T08:11:40;3.57;;;1.20;;
6640;SDS011;3356;49.360;8.266;2022-08-20T08:13:49;3.00;;;1.20;;
6640;SDS011;3356;49.360;8.266;2022-08-20T08:15:51;12.73;;;1.90;;
6640;SDS011;3356;49.360;8.266;2022-08-20T08:18:02;13.67;;;1.43;;
6640;SDS011;3356;49.360;8.266;2022-08-20T08:20:07;3.73;;;1.47;;
6640;SDS011;3356;49.360;8.266;2022-08-20T08:22:12;8.30;;;1.40;;
6640;SDS011;3356;49.360;8.266;2022-08-20T08:24:16;1.07;;;0.80;;
6640;SDS011;3356;49.360;8.266;2022-08-20T08:26:17;3.83;;;1.00;;
6640;SDS011;3356;49.360;8.266;2022-08-20T08:28:19;4.83;;;0.90;;
6640;SDS011;3356;49.360;8.266;2022-08-20T08:30:21;3.13;;;1.40;;
6640;SDS011;3356;49.360;8.266;2022-08-20T08:32:22;2.87;;;0.97;;
6640;SDS011;3356;49.360;8.266;2022-08-20T08:34:24;1.20;;;1.00;;
6640;SDS011;3356;49.360;8.266;2022-08-20T08:36:25;1.83;;;1.00;;
6640;SDS011;3356;49.360;8.266;2022-08-20T08:38:27;4.47;;;1.07;;
6640;SDS011;3356;49.360;8.266;2022-08-20T08:40:29;7.10;;;1.93;;
6640;SDS011;3356;49.360;8.266;2022-08-20T08:42:39;0.97;;;0.97;;
6640;SDS011;3356;49.360;8.266;2022-08-20T08:44:47;0.90;;;0.90;;
6640;SDS011;3356;49.360;8.266;2022-08-20T08:46:56;1.20;;;1.10;;
6640;SDS011;3356;49.360;8.266;2022-08-20T08:49:02;1.27;;;1.07;;
6640;SDS011;3356;49.360;8.266;2022-08-20T08:51:04;3.80;;;1.20;;
6640;SDS011;3356;49.360;8.266;2022-08-20T08:53:15;1.07;;;1.07;;
6640;SDS011;3356;49.360;8.266;2022-08-20T08:55:20;4.53;;;1.30;;
6640;SDS011;3356;49.360;8.266;2022-08-20T08:57:22;1.10;;;1.00;;
6640;SDS011;3356;49.360;8.266;2022-08-20T08:59:24;1.27;;;0.80;;
6640;SDS011;3356;49.360;8.266;2022-08-20T09:01:30;2.10;;;0.97;;
6640;SDS011;3356;49.360;8.266;2022-08-20T09:03:35;1.00;;;1.00;;
6640;SDS011;3356;49.360;8.266;2022-08-20T09:05:46;1.47;;;1.00;;
6640;SDS011;3356;49.360;8.266;2022-08-20T09:07:51;1.47;;;0.90;;
6640;SDS011;3356;49.360;8.266;2022-08-20T09:09:53;0.80;;;0.80;;
6640;SDS011;3356;49.360;8.266;2022-08-20T09:11:56;2.20;;;1.10;;
6640;SDS011;3356;49.360;8.266;2022-08-20T09:14:10;2.53;;;0.87;;
6640;SDS011;3356;49.360;8.266;2022-08-20T09:16:12;1.50;;;1.00;;
6640;SDS011;3356;49.360;8.266;2022-08-20T09:18:13;1.00;;;1.00;;
6640;SDS011;3356;49.360;8.266;2022-08-20T09:20:14;1.27;;;1.00;;
6640;SDS011;3356;49.360;8.266;2022-08-20T09:22:19;0.70;;;0.70;;
6640;SDS011;3356;49.360;8.266;2022-08-20T09:24:21;1.43;;;1.00;;
6640;SDS011;3356;49.360;8.266;2022-08-20T09:26:22;0.53;;;0.53;;
6640;SDS011;3356;49.360;8.266;2022-08-20T09:28:24;1.90;;;0.90;;
6640;SDS011;3356;49.360;8.266;2022-08-20T09:30:25;1.35;;;0.90;;
6640;SDS011;3356;49.360;8.266;2022-08-20T09:32:26;16.75;;;1.60;;
6640;SDS011;3356;49.360;8.266;2022-08-20T09:34:28;0.73;;;0.73;;
6640;SDS011;3356;49.360;8.266;2022-08-20T09:36:29;0.70;;;0.70;;
6640;SDS011;3356;49.360;8.266;2022-08-20T09:38:30;0.70;;;0.60;;
6640;SDS011;3356;49.360;8.266;2022-08-20T09:40:32;17.92;;;1.83;;
6640;SDS011;3356;49.360;8.266;2022-08-20T09:42:35;1.30;;;0.70;;
6640;SDS011;3356;49.360;8.266;2022-08-20T09:44:37;0.65;;;0.65;;
6640;SDS011;3356;49.360;8.266;2022-08-20T09:46:39;0.50;;;0.50;;
6640;SDS011;3356;49.360;8.266;2022-08-20T09:48:40;1.90;;;0.50;;
6640;SDS011;3356;49.360;8.266;2022-08-20T09:50:43;0.70;;;0.70;;
6640;SDS011;3356;49.360;8.266;2022-08-20T09:52:48;1.58;;;0.68;;
6640;SDS011;3356;49.360;8.266;2022-08-20T09:54:51;0.70;;;0.70;;
6640;SDS011;3356;49.360;8.266;2022-08-20T09:56:59;1.70;;;1.00;;
6640;SDS011;3356;49.360;8.266;2022-08-20T09:59:02;0.60;;;0.60;;
6640;SDS011;3356;49.360;8.266;2022-08-20T10:01:11;0.63;;;0.63;;
6640;SDS011;3356;49.360;8.266;2022-08-20T10:03:14;1.65;;;0.68;;
6640;SDS011;3356;49.360;8.266;2022-08-20T10:05:16;0.33;;;0.33;;
6640;SDS011;3356;49.360;8.266;2022-08-20T10:07:17;4.85;;;0.50;;
6640;SDS011;3356;49.360;8.266;2022-08-20T10:09:18;1.60;;;0.90;;
6640;SDS011;3356;49.360;8.266;2022-08-20T10:11:20;0.70;;;0.70;;
6640;SDS011;3356;49.360;8.266;2022-08-20T10:13:21;0.57;;;0.57;;
6640;SDS011;3356;49.360;8.266;2022-08-20T10:15:22;3.80;;;0.60;;
6640;SDS011;3356;49.360;8.266;2022-08-20T10:17:23;0.50;;;0.40;;
6640;SDS011;3356;49.360;8.266;2022-08-20T10:19:27;0.52;;;0.43;;
6640;SDS011;3356;49.360;8.266;2022-08-20T10:21:30;3.85;;;0.40;;
6640;SDS011;3356;49.360;8.266;2022-08-20T10:23:32;7.93;;;0.75;;
6640;SDS011;3356;49.360;8.266;2022-08-20T10:25:33;2.55;;;0.40;;
6640;SDS011;3356;49.360;8.266;2022-08-20T10:27:34;1.02;;;0.40;;
6640;SDS011;3356;49.360;8.266;2022-08-20T10:29:36;0.40;;;0.40;;
6640;SDS011;3356;49.360;8.266;2022-08-20T10:31:37;34.08;;;1.23;;
6640;SDS011;3356;49.360;8.266;2022-08-20T10:33:39;11.18;;;0.65;;
6640;SDS011;3356;49.360;8.266;2022-08-20T10:35:41;0.40;;;0.40;;
6640;SDS011;3356;49.360;8.266;2022-08-20T10:37:42;3.50;;;0.60;;
6640;SDS011;3356;49.360;8.266;2022-08-20T10:39:44;0.68;;;0.40;;
6640;SDS011;3356;49.360;8.266;2022-08-20T10:41:45;2.05;;;0.50;;
6640;SDS011;3356;49.360;8.266;2022-08-20T10:43:46;0.70;;;0.40;;
6640;SDS011;3356;49.360;8.266;2022-08-20T10:45:49;3.60;;;0.60;;
6640;SDS011;3356;49.360;8.266;2022-08-20T10:47:50;0.90;;;0.43;;
6640;SDS011;3356;49.360;8.266;2022-08-20T10:49:53;2.22;;;0.43;;
6640;SDS011;3356;49.360;8.266;2022-08-20T10:51:56;1.05;;;0.50;;
6640;SDS011;3356;49.360;8.266;2022-08-20T10:53:57;2.08;;;0.70;;
6640;SDS011;3356;49.360;8.266;2022-08-20T10:55:58;0.45;;;0.45;;
6640;SDS011;3356;49.360;8.266;2022-08-20T10:58:00;4.47;;;0.70;;
6640;SDS011;3356;49.360;8.266;2022-08-20T11:00:04;0.40;;;0.40;;
6640;SDS011;3356;49.360;8.266;2022-08-20T11:02:08;0.68;;;0.68;;
6640;SDS011;3356;49.360;8.266;2022-08-20T11:04:10;0.50;;;0.50;;
6640;SDS011;3356;49.360;8.266;2022-08-20T11:06:11;0.55;;;0.55;;
6640;SDS011;3356;49.360;8.266;2022-08-20T11:08:13;0.50;;;0.50;;
6640;SDS011;3356;49.360;8.266;2022-08-20T11:10:14;0.57;;;0.57;;
6640;SDS011;3356;49.360;8.266;2022-08-20T11:12:16;0.60;;;0.60;;
6640;SDS011;3356;49.360;8.266;2022-08-20T11:14:19;0.45;;;0.45;;
6640;SDS011;3356;49.360;8.266;2022-08-20T11:16:20;1.10;;;0.40;;
6640;SDS011;3356;49.360;8.266;2022-08-20T11:18:21;5.30;;;0.68;;
6640;SDS011;3356;49.360;8.266;2022-08-20T11:20:23;0.45;;;0.32;;
6640;SDS011;3356;49.360;8.266;2022-08-20T11:22:25;0.50;;;0.50;;
6640;SDS011;3356;49.360;8.266;2022-08-20T11:24:27;0.28;;;0.28;;
6640;SDS011;3356;49.360;8.266;2022-08-20T11:26:28;0.52;;;0.52;;
6640;SDS011;3356;49.360;8.266;2022-08-20T11:28:29;1.83;;;0.60;;
6640;SDS011;3356;49.360;8.266;2022-08-20T11:30:33;1.00;;;0.50;;
6640;SDS011;3356;49.360;8.266;2022-08-20T11:32:35;1.02;;;0.90;;
6640;SDS011;3356;49.360;8.266;2022-08-20T11:34:37;3.88;;;0.65;;
6640;SDS011;3356;49.360;8.266;2022-08-20T11:36:38;1.08;;;0.80;;
6640;SDS011;3356;49.360;8.266;2022-08-20T11:38:40;1.00;;;0.50;;
6640;SDS011;3356;49.360;8.266;2022-08-20T11:40:41;0.93;;;0.70;;
6640;SDS011;3356;49.360;8.266;2022-08-20T11:42:42;0.60;;;0.60;;
6640;SDS011;3356;49.360;8.266;2022-08-20T11:44:43;0.98;;;0.55;;
6640;SDS011;3356;49.360;8.266;2022-08-20T11:46:45;0.32;;;0.32;;
6640;SDS011;3356;49.360;8.266;2022-08-20T11:48:46;0.50;;;0.50;;
6640;SDS011;3356;49.360;8.266;2022-08-20T11:50:47;1.10;;;0.60;;
6640;SDS011;3356;49.360;8.266;2022-08-20T11:52:49;0.90;;;0.57;;
6640;SDS011;3356;49.360;8.266;2022-08-20T11:54:50;2.73;;;0.63;;
6640;SDS011;3356;49.360;8.266;2022-08-20T11:56:51;1.48;;;1.00;;
6640;SDS011;3356;49.360;8.266;2022-08-20T11:58:52;2.05;;;0.95;;
6640;SDS011;3356;49.360;8.266;2022-08-20T12:00:53;0.95;;;0.73;;
6640;SDS011;3356;49.360;8.266;2022-08-20T12:02:54;2.08;;;0.80;;
6640;SDS011;3356;49.360;8.266;2022-08-20T12:04:56;24.73;;;2.08;;
6640;SDS011;3356;49.360;8.266;2022-08-20T12:07:00;4.22;;;0.63;;
6640;SDS011;3356;49.360;8.266;2022-08-20T12:09:09;5.07;;;0.80;;
6640;SDS011;3356;49.360;8.266;2022-08-20T12:11:11;2.67;;;0.75;;
6640;SDS011;3356;49.360;8.266;2022-08-20T12:13:12;0.95;;;0.75;;
6640;SDS011;3356;49.360;8.266;2022-08-20T12:15:13;1.10;;;0.55;;
6640;SDS011;3356;49.360;8.266;2022-08-20T12:17:15;2.42;;;1.10;;
6640;SDS011;3356;49.360;8.266;2022-08-20T12:19:20;3.00;;;1.05;;
6640;SDS011;3356;49.360;8.266;2022-08-20T12:21:21;0.85;;;0.75;;
6640;SDS011;3356;49.360;8.266;2022-08-20T12:23:23;1.37;;;0.60;;
6640;SDS011;3356;49.360;8.266;2022-08-20T12:25:24;2.15;;;0.60;;
6640;SDS011;3356;49.360;8.266;2022-08-20T12:27:27;5.07;;;1.48;;
6640;SDS011;3356;49.360;8.266;2022-08-20T12:29:31;2.83;;;0.87;;
6640;SDS011;3356;49.360;8.266;2022-08-20T12:31:32;2.47;;;1.30;;
6640;SDS011;3356;49.360;8.266;2022-08-20T12:33:34;0.67;;;0.60;;
6640;SDS011;3356;49.360;8.266;2022-08-20T12:35:35;4.30;;;1.20;;
6640;SDS011;3356;49.360;8.266;2022-08-20T12:37:36;3.50;;;0.82;;
6640;SDS011;3356;49.360;8.266;2022-08-20T12:39:38;1.03;;;0.63;;
6640;SDS011;3356;49.360;8.266;2022-08-20T12:41:41;0.77;;;0.77;;
6640;SDS011;3356;49.360;8.266;2022-08-20T12:43:42;5.33;;;1.03;;
6640;SDS011;3356;49.360;8.266;2022-08-20T12:45:43;5.77;;;1.07;;
6640;SDS011;3356;49.360;8.266;2022-08-20T12:47:45;1.80;;;1.00;;